Time;durP1;ratioP1;P1;durP2;ratioP2;P2;SDS_P1;SDS_P2;PMS_P1;PMS_P2;Temp;Humidity;BMP_temperature;BMP_pressure;BME280_temperature;BME280_humidity;BME280_pressure;Samples;Min_cycle;Max_cycle;Signal;HPM_P1;HPM_P2
2021/11/04 00:01:29;;;;;;;22.10;11.63;;;8.20;97.30;;;;;;5069218;28;20180;-78
2021/11/04 00:03:55;;;;;;;22.73;11.70;;;8.20;97.30;;;;;;5052907;28;20187;-78
2021/11/04 00:06:20;;;;;;;21.73;11.10;;;8.20;97.30;;;;;;5068891;28;20682;-78
2021/11/04 00:08:46;;;;;;;19.70;10.93;;;8.30;97.30;;;;;;5069157;28;20207;-78
2021/11/04 00:11:11;;;;;;;26.40;12.30;;;8.30;97.30;;;;;;5051739;28;20176;-79
2021/11/04 00:13:38;;;;;;;20.10;10.30;;;8.20;97.30;;;;;;5053470;28;20576;-77
2021/11/04 00:16:08;;;;;;;24.20;11.97;;;8.20;97.30;;;;;;5052027;28;20200;-78
2021/11/04 00:18:34;;;;;;;26.03;11.67;;;8.20;97.30;;;;;;5051694;28;20430;-77
2021/11/04 00:21:00;;;;;;;26.80;11.80;;;8.20;97.30;;;;;;5052126;28;20450;-78
2021/11/04 00:23:26;;;;;;;21.80;11.20;;;8.20;97.30;;;;;;5068466;28;20468;-78
2021/11/04 00:25:51;;;;;;;31.07;13.37;;;8.20;97.30;;;;;;5053102;28;20523;-78
2021/11/04 00:28:17;;;;;;;28.90;12.90;;;8.20;97.30;;;;;;5051783;28;20206;-78
2021/11/04 00:30:43;;;;;;;27.30;12.33;;;8.20;97.30;;;;;;5053192;28;20554;-78
2021/11/04 00:33:09;;;;;;;25.07;12.10;;;8.20;97.30;;;;;;5051731;28;20466;-79
2021/11/04 00:35:35;;;;;;;29.00;12.00;;;8.20;97.30;;;;;;5068779;28;20826;-78
2021/11/04 00:38:01;;;;;;;22.90;11.93;;;8.10;97.30;;;;;;5052849;28;20174;-78
2021/11/04 00:40:26;;;;;;;29.40;13.70;;;8.10;97.30;;;;;;5051637;28;20185;-78
2021/11/04 00:42:52;;;;;;;24.63;12.17;;;8.10;97.30;;;;;;5052420;28;20427;-78
2021/11/04 00:45:18;;;;;;;28.27;13.87;;;8.10;97.30;;;;;;5052399;28;20267;-79
2021/11/04 00:47:43;;;;;;;32.87;15.03;;;8.10;97.30;;;;;;5053518;28;20211;-78
2021/11/04 00:50:09;;;;;;;27.03;12.70;;;8.10;97.30;;;;;;5051403;28;20172;-78
2021/11/04 00:52:35;;;;;;;24.60;13.00;;;8.10;97.30;;;;;;5051689;28;20550;-78
2021/11/04 00:55:01;;;;;;;24.90;13.00;;;8.10;97.30;;;;;;5068155;28;20513;-78
2021/11/04 00:57:27;;;;;;;22.57;12.20;;;8.10;97.30;;;;;;5052687;28;20176;-78
2021/11/04 00:59:52;;;;;;;30.43;14.30;;;8.10;97.30;;;;;;5052279;28;20653;-78
2021/11/04 01:02:18;;;;;;;24.57;12.47;;;8.10;97.30;;;;;;5052525;28;20184;-79
2021/11/04 01:04:44;;;;;;;25.70;12.40;;;8.10;97.30;;;;;;5052615;28;20255;-79
2021/11/04 01:07:09;;;;;;;27.27;12.60;;;8.10;97.30;;;;;;5051119;28;20211;-78
2021/11/04 01:09:35;;;;;;;24.20;12.33;;;8.10;97.30;;;;;;5056778;28;20179;-78
2021/11/04 01:12:01;;;;;;;23.50;11.70;;;8.00;97.30;;;;;;5054092;28;20180;-78
2021/11/04 01:14:26;;;;;;;22.63;11.20;;;8.00;97.30;;;;;;5055787;28;20290;-78
2021/11/04 01:16:52;;;;;;;24.77;12.67;;;8.00;97.30;;;;;;5051237;28;20859;-78
2021/11/04 01:19:18;;;;;;;20.83;10.30;;;8.00;97.30;;;;;;5054746;28;20167;-78
2021/11/04 01:21:43;;;;;;;26.93;13.27;;;8.00;97.30;;;;;;5056133;28;20180;-78
2021/11/04 01:24:09;;;;;;;27.90;12.63;;;8.00;97.30;;;;;;5050696;28;20249;-79
2021/11/04 01:26:35;;;;;;;26.83;12.33;;;8.00;97.30;;;;;;5052214;28;20208;-78
2021/11/04 01:29:01;;;;;;;27.17;12.37;;;8.00;97.30;;;;;;5050918;28;20168;-78
2021/11/04 01:31:26;;;;;;;25.73;13.33;;;8.00;97.30;;;;;;5052078;28;20417;-78
2021/11/04 01:33:52;;;;;;;32.57;15.03;;;8.00;97.30;;;;;;5052145;28;20227;-78
2021/11/04 01:36:18;;;;;;;25.30;13.07;;;8.00;97.30;;;;;;5050635;28;20200;-78
2021/11/04 01:38:43;;;;;;;28.37;14.90;;;8.00;97.30;;;;;;5050910;28;20206;-78
2021/11/04 01:41:09;;;;;;;26.43;13.93;;;8.00;97.30;;;;;;5050521;28;20642;-78
2021/11/04 01:43:35;;;;;;;22.90;13.30;;;8.00;97.30;;;;;;5052897;28;20517;-78
2021/11/04 01:46:02;;;;;;;28.00;12.57;;;8.00;97.30;;;;;;5051483;28;20219;-78
2021/11/04 01:48:28;;;;;;;26.67;12.50;;;7.90;97.30;;;;;;5051922;28;20156;-78
2021/11/04 01:50:54;;;;;;;25.30;13.80;;;7.90;97.30;;;;;;5050933;28;20589;-77
2021/11/04 01:53:21;;;;;;;25.90;11.90;;;7.90;97.30;;;;;;5050559;28;20222;-77
2021/11/04 01:55:48;;;;;;;24.50;11.60;;;7.90;97.30;;;;;;5051802;28;20427;-77
2021/11/04 01:58:14;;;;;;;31.17;14.87;;;7.90;97.30;;;;;;5052910;28;20472;-77
2021/11/04 02:00:40;;;;;;;22.37;12.50;;;7.80;97.30;;;;;;5054632;28;20414;-77
2021/11/04 02:03:27;;;;;;;26.90;12.97;;;7.80;97.30;;;;;;5052056;28;20450;-77
2021/11/04 02:06:24;;;;;;;23.07;11.17;;;7.80;97.30;;;;;;5050484;28;20478;-77
2021/11/04 02:08:49;;;;;;;26.67;12.00;;;7.80;97.30;;;;;;5050380;28;20441;-77
2021/11/04 02:11:27;;;;;;;25.23;13.07;;;7.80;97.30;;;;;;5050356;28;20904;-77
2021/11/04 02:14:00;;;;;;;26.50;13.73;;;7.80;97.30;;;;;;5052078;28;20172;-77
2021/11/04 02:16:30;;;;;;;30.90;14.50;;;7.80;97.30;;;;;;5050927;28;20986;-77
2021/11/04 02:19:00;;;;;;;26.53;12.67;;;7.80;97.30;;;;;;5050220;28;20421;-77
2021/11/04 02:21:38;;;;;;;29.00;13.83;;;7.80;97.30;;;;;;5051419;28;20418;-77
2021/11/04 02:24:29;;;;;;;30.27;14.20;;;7.70;97.30;;;;;;5051217;28;20511;-77
2021/11/04 02:26:56;;;;;;;30.80;13.63;;;7.70;97.30;;;;;;5050034;28;21053;-77
2021/11/04 02:29:22;;;;;;;25.03;13.10;;;7.70;97.30;;;;;;5050014;28;20853;-77
2021/11/04 02:31:49;;;;;;;29.70;12.90;;;7.70;97.30;;;;;;5049590;28;20504;-77
2021/11/04 02:34:15;;;;;;;29.83;13.90;;;7.80;97.30;;;;;;5041573;28;20231;-77
2021/11/04 02:36:42;;;;;;;30.50;13.27;;;7.80;97.30;;;;;;5032156;28;20439;-77
2021/11/04 02:39:09;;;;;;;32.23;14.03;;;7.80;97.30;;;;;;5032588;28;20553;-77
2021/11/04 02:41:35;;;;;;;26.70;13.50;;;7.80;97.30;;;;;;5039083;28;20852;-77
2021/11/04 02:44:01;;;;;;;26.33;12.83;;;7.80;97.30;;;;;;5050481;28;20465;-77
2021/11/04 02:46:28;;;;;;;31.90;14.67;;;7.80;97.30;;;;;;5050009;28;20632;-77
2021/11/04 02:48:55;;;;;;;27.47;13.23;;;7.80;97.30;;;;;;5050190;28;20402;-78
2021/11/04 02:51:21;;;;;;;26.47;13.10;;;7.80;97.30;;;;;;5051235;28;20909;-78
2021/11/04 02:53:47;;;;;;;28.67;12.70;;;7.80;97.30;;;;;;5049863;28;20414;-77
2021/11/04 02:56:13;;;;;;;29.00;14.13;;;7.80;97.30;;;;;;5051520;28;20438;-77
2021/11/04 02:58:40;;;;;;;31.40;14.07;;;7.80;97.30;;;;;;5053907;28;20517;-76
2021/11/04 03:01:06;;;;;;;29.70;14.30;;;7.80;97.30;;;;;;5053720;28;20629;-77
2021/11/04 03:03:32;;;;;;;27.47;13.37;;;7.80;97.30;;;;;;5054808;28;20410;-77
2021/11/04 03:05:58;;;;;;;30.27;13.77;;;7.80;97.30;;;;;;5053524;28;20469;-77
2021/11/04 03:08:27;;;;;;;23.80;12.27;;;7.80;97.30;;;;;;5055331;28;20183;-77
2021/11/04 03:10:53;;;;;;;27.33;13.70;;;7.70;97.30;;;;;;5070433;28;20183;-77
2021/11/04 03:13:19;;;;;;;29.50;13.40;;;7.70;97.30;;;;;;5053900;28;20839;-77
2021/11/04 03:15:49;;;;;;;28.23;13.10;;;7.70;97.30;;;;;;5054508;28;20438;-77
2021/11/04 03:18:16;;;;;;;29.37;12.80;;;7.70;97.30;;;;;;5053362;28;20533;-77
2021/11/04 03:20:47;;;;;;;29.70;13.17;;;7.70;97.30;;;;;;5055024;28;20931;-77
2021/11/04 03:23:13;;;;;;;34.03;14.20;;;7.70;97.30;;;;;;5054292;28;20413;-77
2021/11/04 03:25:40;;;;;;;28.67;13.33;;;7.60;97.30;;;;;;5054379;28;20430;-77
2021/11/04 03:28:06;;;;;;;31.30;13.70;;;7.60;97.30;;;;;;5053125;28;20222;-77
2021/11/04 03:30:36;;;;;;;29.80;14.67;;;7.60;97.30;;;;;;5053375;28;20446;-77
2021/11/04 03:33:03;;;;;;;26.73;12.50;;;7.60;97.30;;;;;;5053670;28;20218;-77
2021/11/04 03:35:31;;;;;;;29.30;14.00;;;7.60;97.30;;;;;;5054378;28;20488;-77
2021/11/04 03:38:00;;;;;;;29.57;12.90;;;7.60;97.30;;;;;;5052914;28;20415;-77
2021/11/04 03:40:26;;;;;;;29.97;13.70;;;7.50;97.30;;;;;;5069163;28;20773;-77
2021/11/04 03:42:52;;;;;;;21.73;11.60;;;7.50;97.30;;;;;;5052555;28;20472;-77
2021/11/04 03:45:19;;;;;;;26.50;12.23;;;7.50;97.30;;;;;;5052818;28;20438;-77
2021/11/04 03:47:46;;;;;;;33.47;13.40;;;7.50;97.30;;;;;;5052775;28;20532;-77
2021/11/04 03:50:13;;;;;;;32.50;13.70;;;7.50;97.30;;;;;;5052965;28;20418;-77
2021/11/04 03:52:43;;;;;;;32.17;12.87;;;7.50;97.30;;;;;;5052555;28;20425;-77
2021/11/04 03:55:10;;;;;;;27.03;13.87;;;7.50;97.30;;;;;;5052252;28;20993;-77
2021/11/04 03:57:39;;;;;;;25.37;12.77;;;7.50;97.30;;;;;;5052684;28;20480;-77
2021/11/04 04:00:08;;;;;;;28.23;13.47;;;7.50;97.30;;;;;;5052920;28;20422;-77
2021/11/04 04:02:34;;;;;;;23.50;12.00;;;7.50;97.30;;;;;;5054106;28;20419;-78
2021/11/04 04:04:59;;;;;;;28.23;13.67;;;7.50;97.30;;;;;;5052574;28;20515;-77
2021/11/04 04:07:26;;;;;;;21.80;11.03;;;7.50;97.30;;;;;;5051774;28;20946;-77
2021/11/04 04:09:52;;;;;;;27.30;12.93;;;7.50;97.30;;;;;;5053932;28;20168;-77
2021/11/04 04:12:18;;;;;;;23.43;11.20;;;7.50;97.30;;;;;;5052413;28;20433;-77
2021/11/04 04:14:43;;;;;;;22.17;11.33;;;7.50;97.30;;;;;;5052672;28;20195;-77
2021/11/04 04:17:09;;;;;;;24.97;12.23;;;7.50;97.30;;;;;;5052586;28;20596;-77
2021/11/04 04:19:35;;;;;;;24.20;11.83;;;7.50;97.30;;;;;;5053417;28;20214;-77
2021/11/04 04:22:00;;;;;;;22.37;10.50;;;7.50;97.30;;;;;;5052018;28;20215;-77
2021/11/04 04:24:26;;;;;;;19.10;10.47;;;7.50;97.30;;;;;;5053585;28;20246;-77
2021/11/04 04:26:51;;;;;;;23.60;11.80;;;7.50;97.30;;;;;;5051810;28;20222;-77
2021/11/04 04:29:17;;;;;;;22.17;11.20;;;7.50;97.30;;;;;;5051829;28;20634;-77
2021/11/04 04:31:43;;;;;;;20.97;10.87;;;7.50;97.30;;;;;;5045457;28;20243;-77
2021/11/04 04:34:10;;;;;;;19.73;10.43;;;7.50;97.30;;;;;;5048615;28;20661;-77
2021/11/04 04:36:36;;;;;;;22.47;10.63;;;7.50;97.30;;;;;;5048945;28;20433;-77
2021/11/04 04:39:03;;;;;;;19.13;10.17;;;7.50;97.30;;;;;;5031919;28;20801;-77
2021/11/04 04:41:28;;;;;;;24.40;11.50;;;7.50;97.30;;;;;;5052149;28;20188;-77
2021/11/04 04:43:54;;;;;;;19.80;10.03;;;7.50;97.30;;;;;;5053190;28;20440;-77
2021/11/04 04:46:21;;;;;;;19.90;10.23;;;7.50;97.30;;;;;;5053283;28;20208;-77
2021/11/04 04:48:47;;;;;;;18.57;9.97;;;7.50;97.30;;;;;;5052017;28;20172;-77
2021/11/04 04:51:13;;;;;;;21.43;12.00;;;7.50;97.30;;;;;;5053105;28;20788;-78
2021/11/04 04:53:39;;;;;;;20.33;10.00;;;7.50;97.30;;;;;;5052946;28;20743;-77
2021/11/04 04:56:05;;;;;;;23.23;10.03;;;7.50;97.30;;;;;;5051665;28;20246;-77
2021/11/04 04:58:31;;;;;;;18.37;9.93;;;7.50;97.30;;;;;;5068504;28;20188;-77
2021/11/04 05:00:57;;;;;;;18.30;9.40;;;7.50;97.30;;;;;;5051600;28;20430;-77
2021/11/04 05:03:22;;;;;;;23.67;10.73;;;7.40;97.30;;;;;;5051892;28;20192;-77
2021/11/04 05:05:48;;;;;;;19.37;9.30;;;7.40;97.30;;;;;;5051852;28;20946;-77
2021/11/04 05:08:14;;;;;;;28.30;10.33;;;7.40;97.30;;;;;;5052213;28;20642;-77
2021/11/04 05:10:40;;;;;;;21.77;10.33;;;7.40;97.30;;;;;;5051662;28;20424;-77
2021/11/04 05:13:05;;;;;;;23.00;11.43;;;7.40;97.30;;;;;;5051839;28;20190;-77
2021/11/04 05:15:31;;;;;;;20.40;9.93;;;7.30;97.30;;;;;;5052596;28;20207;-77
2021/11/04 05:17:57;;;;;;;22.13;10.73;;;7.30;97.30;;;;;;5053540;28;20180;-78
2021/11/04 05:20:24;;;;;;;22.47;10.33;;;7.20;97.30;;;;;;5051752;28;20180;-77
2021/11/04 05:22:49;;;;;;;21.40;11.00;;;7.20;97.30;;;;;;5052848;28;20452;-77
2021/11/04 05:25:15;;;;;;;20.83;9.70;;;7.20;97.30;;;;;;5054021;28;20521;-77
2021/11/04 05:27:47;;;;;;;21.17;10.43;;;7.20;97.30;;;;;;5051596;28;20355;-77
2021/11/04 05:30:13;;;;;;;17.50;9.03;;;7.20;97.30;;;;;;5052216;28;20168;-76
2021/11/04 05:32:39;;;;;;;19.40;9.83;;;7.10;97.30;;;;;;5052717;28;20832;-77
2021/11/04 05:35:05;;;;;;;24.23;10.63;;;7.10;97.30;;;;;;5051913;28;20438;-77
2021/11/04 05:37:30;;;;;;;19.03;10.37;;;7.10;97.30;;;;;;5052906;28;20230;-78
2021/11/04 05:39:56;;;;;;;21.30;9.70;;;7.10;97.30;;;;;;5052491;28;20844;-78
2021/11/04 05:42:21;;;;;;;19.67;9.50;;;7.10;97.30;;;;;;5051628;28;20214;-77
2021/11/04 05:44:47;;;;;;;20.40;10.00;;;7.10;97.30;;;;;;5051509;28;20204;-77
2021/11/04 05:47:13;;;;;;;23.60;10.73;;;7.10;97.30;;;;;;5050719;28;20239;-77
2021/11/04 05:49:39;;;;;;;26.03;11.13;;;7.10;97.30;;;;;;5050238;28;20186;-77
2021/11/04 05:52:05;;;;;;;25.90;11.03;;;7.10;97.30;;;;;;5049424;28;20186;-77
2021/11/04 05:54:30;;;;;;;22.10;10.43;;;7.10;97.30;;;;;;5049279;28;20681;-77
2021/11/04 05:56:56;;;;;;;21.33;10.00;;;7.10;97.30;;;;;;5049877;28;20414;-77
2021/11/04 05:59:21;;;;;;;20.00;10.27;;;7.10;97.30;;;;;;5066314;28;20560;-77
2021/11/04 06:01:47;;;;;;;22.90;10.17;;;7.10;97.30;;;;;;5049387;28;20205;-77
2021/11/04 06:04:12;;;;;;;19.60;10.17;;;7.10;97.30;;;;;;5048818;28;20179;-78
2021/11/04 06:06:38;;;;;;;20.80;9.73;;;7.10;97.30;;;;;;5065286;28;20195;-77
2021/11/04 06:09:04;;;;;;;24.03;9.77;;;7.10;97.30;;;;;;5066300;28;20182;-78
2021/11/04 06:11:29;;;;;;;18.57;9.20;;;7.10;97.30;;;;;;5050365;28;20183;-77
2021/11/04 06:13:55;;;;;;;23.60;10.93;;;7.10;97.30;;;;;;5049991;28;20183;-78
2021/11/04 06:16:21;;;;;;;25.57;9.80;;;7.10;97.30;;;;;;5051457;28;20566;-77
2021/11/04 06:18:46;;;;;;;21.60;10.90;;;7.10;97.30;;;;;;5049723;28;20639;-78
2021/11/04 06:21:13;;;;;;;23.80;10.60;;;7.00;97.30;;;;;;5047390;28;20183;-78
2021/11/04 06:23:39;;;;;;;19.87;10.20;;;7.00;97.30;;;;;;5048444;28;20187;-78
2021/11/04 06:26:04;;;;;;;20.27;9.40;;;7.00;97.30;;;;;;5049982;28;20466;-77
2021/11/04 06:28:30;;;;;;;20.17;9.27;;;7.00;97.30;;;;;;5051192;28;20449;-77
2021/11/04 06:30:55;;;;;;;23.17;9.80;;;7.00;97.30;;;;;;5053700;28;20206;-77
2021/11/04 06:33:21;;;;;;;25.93;12.60;;;7.00;97.30;;;;;;5056581;28;20253;-77
2021/11/04 06:35:47;;;;;;;25.90;10.93;;;7.00;97.30;;;;;;5056504;28;20195;-78
2021/11/04 06:38:12;;;;;;;22.07;10.13;;;7.00;97.30;;;;;;5056599;28;20180;-77
2021/11/04 06:40:38;;;;;;;23.50;10.80;;;7.10;97.30;;;;;;5056710;28;20267;-77
2021/11/04 06:43:03;;;;;;;25.23;10.73;;;7.10;97.30;;;;;;5057543;28;20171;-77
2021/11/04 06:45:32;;;;;;;20.90;10.63;;;7.10;97.30;;;;;;5056183;28;20195;-78
2021/11/04 06:48:01;;;;;;;21.73;11.10;;;7.10;97.30;;;;;;5072796;28;20212;-78
2021/11/04 06:50:31;;;;;;;25.87;10.90;;;7.10;97.30;;;;;;5055847;28;20415;-77
2021/11/04 06:53:11;;;;;;;29.90;12.30;;;7.00;97.30;;;;;;5056124;28;20418;-76
2021/11/04 06:55:39;;;;;;;24.07;11.30;;;7.00;97.30;;;;;;5055944;28;20450;-78
2021/11/04 06:58:05;;;;;;;27.63;12.73;;;7.00;97.30;;;;;;5056215;28;20425;-76
2021/11/04 07:00:34;;;;;;;27.27;12.43;;;7.00;97.30;;;;;;5073151;28;20429;-77
2021/11/04 07:03:23;;;;;;;31.77;11.87;;;7.00;97.30;;;;;;5039808;28;20430;-77
2021/11/04 07:05:56;;;;;;;32.87;13.87;;;7.00;97.30;;;;;;5037159;28;20956;-76
2021/11/04 07:08:24;;;;;;;28.10;11.93;;;7.00;97.30;;;;;;5036581;28;20884;-77
2021/11/04 07:11:00;;;;;;;32.37;12.60;;;7.00;97.30;;;;;;5037342;28;20468;-77
2021/11/04 07:13:29;;;;;;;27.00;12.03;;;7.00;97.30;;;;;;5035881;28;20411;-76
2021/11/04 07:15:56;;;;;;;29.33;12.33;;;7.00;97.30;;;;;;5035468;28;20434;-76
2021/11/04 07:18:22;;;;;;;29.77;12.90;;;7.00;97.30;;;;;;5035911;28;20453;-77
2021/11/04 07:20:58;;;;;;;30.73;13.40;;;7.10;97.30;;;;;;5036271;28;20423;-76
2021/11/04 07:23:39;;;;;;;27.93;11.83;;;7.00;97.30;;;;;;5037583;28;20410;-77
2021/11/04 07:26:07;;;;;;;31.37;12.77;;;7.00;97.30;;;;;;5036112;28;20498;-76
2021/11/04 07:28:35;;;;;;;28.83;12.63;;;7.00;97.30;;;;;;5035679;28;20415;-78
2021/11/04 07:31:01;;;;;;;28.00;12.50;;;7.00;97.30;;;;;;5035927;28;20415;-77
2021/11/04 07:33:31;;;;;;;33.43;14.20;;;7.00;97.30;;;;;;5037141;28;21043;-77
2021/11/04 07:35:57;;;;;;;28.03;12.23;;;7.00;97.30;;;;;;5036095;28;20435;-77
2021/11/04 07:38:26;;;;;;;37.00;13.50;;;7.00;97.30;;;;;;5036208;28;20411;-78
2021/11/04 07:40:52;;;;;;;36.43;14.10;;;7.00;97.30;;;;;;5048190;28;20414;-76
2021/11/04 07:43:19;;;;;;;28.33;13.40;;;7.00;97.30;;;;;;5052134;28;20529;-77
2021/11/04 07:45:44;;;;;;;32.70;12.40;;;7.00;97.30;;;;;;5052733;28;20196;-77
2021/11/04 07:48:10;;;;;;;31.83;13.77;;;7.00;97.30;;;;;;5052546;28;20810;-77
2021/11/04 07:50:36;;;;;;;31.20;12.80;;;7.00;97.30;;;;;;5053742;28;20259;-77
2021/11/04 07:53:02;;;;;;;32.97;13.53;;;7.00;97.30;;;;;;5053292;28;20903;-76
2021/11/04 07:55:28;;;;;;;28.23;12.93;;;7.00;97.30;;;;;;5053222;28;20287;-77
2021/11/04 07:57:54;;;;;;;33.90;13.43;;;7.00;97.30;;;;;;5053250;28;20510;-76
2021/11/04 08:00:23;;;;;;;31.53;12.33;;;7.10;97.30;;;;;;5054235;28;20575;-76
2021/11/04 08:02:48;;;;;;;37.90;14.93;;;7.10;97.30;;;;;;5053779;28;20793;-77
2021/11/04 08:05:17;;;;;;;30.33;14.30;;;7.10;97.30;;;;;;5053068;28;20438;-77
2021/11/04 08:07:43;;;;;;;36.60;14.10;;;7.10;97.30;;;;;;5053604;28;20214;-76
2021/11/04 08:10:14;;;;;;;29.07;13.20;;;7.10;97.30;;;;;;5069074;28;20414;-77
2021/11/04 08:12:40;;;;;;;34.00;13.80;;;7.10;97.30;;;;;;5053114;28;20262;-77
2021/11/04 08:15:08;;;;;;;28.10;12.27;;;7.00;97.30;;;;;;5051788;28;20724;-77
2021/11/04 08:17:34;;;;;;;33.30;12.83;;;7.10;97.30;;;;;;5048151;28;20444;-76
2021/11/04 08:19:59;;;;;;;27.80;11.50;;;7.00;97.30;;;;;;5052439;28;20419;-76
2021/11/04 08:22:26;;;;;;;23.83;11.20;;;7.00;97.30;;;;;;5053531;28;20955;-75
2021/11/04 08:24:52;;;;;;;22.90;11.50;;;7.00;97.30;;;;;;5052206;28;20202;-77
2021/11/04 08:27:19;;;;;;;28.10;10.63;;;7.00;97.30;;;;;;5052975;28;20450;-77
2021/11/04 08:29:44;;;;;;;20.33;9.50;;;7.00;97.30;;;;;;5050265;28;20172;-76
2021/11/04 08:32:11;;;;;;;28.07;11.30;;;7.00;97.30;;;;;;5052249;28;20460;-78
2021/11/04 08:34:41;;;;;;;25.10;10.37;;;7.00;97.30;;;;;;5068686;28;20196;-77
2021/11/04 08:37:08;;;;;;;23.17;10.37;;;7.00;97.30;;;;;;5051773;28;20481;-78
2021/11/04 08:39:34;;;;;;;23.30;9.97;;;7.00;97.30;;;;;;5051938;28;20720;-76
2021/11/04 08:42:00;;;;;;;28.57;10.60;;;7.00;97.30;;;;;;5052872;28;20453;-77
2021/11/04 08:44:26;;;;;;;20.27;10.47;;;7.00;97.30;;;;;;5052712;28;20430;-77
2021/11/04 08:46:52;;;;;;;24.80;9.60;;;7.00;97.30;;;;;;5052103;28;20450;-78
2021/11/04 08:49:18;;;;;;;26.47;10.93;;;7.00;97.30;;;;;;5053129;28;20207;-77
2021/11/04 08:51:43;;;;;;;23.17;9.60;;;7.00;97.30;;;;;;5051595;28;20429;-77
2021/11/04 08:54:09;;;;;;;19.47;9.30;;;7.00;97.30;;;;;;5051027;28;20203;-78
2021/11/04 08:56:38;;;;;;;18.60;9.00;;;7.00;97.30;;;;;;5051919;28;20221;-76
2021/11/04 08:59:05;;;;;;;16.40;8.37;;;7.00;97.30;;;;;;5067274;28;20195;-78
2021/11/04 09:01:33;;;;;;;22.20;9.50;;;7.00;97.30;;;;;;5066742;28;20446;-78
2021/11/04 09:03:58;;;;;;;18.73;8.67;;;7.00;97.30;;;;;;5050255;28;20414;-76
2021/11/04 09:06:24;;;;;;;14.87;8.13;;;7.00;97.30;;;;;;5050368;28;20458;-77
2021/11/04 09:08:49;;;;;;;21.37;9.30;;;7.00;97.30;;;;;;5050466;28;20875;-76
2021/11/04 09:11:15;;;;;;;19.43;9.23;;;7.00;97.30;;;;;;5052395;28;20175;-76
2021/11/04 09:13:41;;;;;;;24.30;9.80;;;7.00;97.30;;;;;;5052418;28;20183;-76
2021/11/04 09:16:06;;;;;;;16.00;8.40;;;6.90;97.30;;;;;;5050795;28;20253;-75
2021/11/04 09:18:32;;;;;;;24.30;8.97;;;6.90;97.30;;;;;;5051035;28;20547;-76
2021/11/04 09:20:58;;;;;;;21.17;8.80;;;7.00;97.30;;;;;;5050813;28;20176;-76
2021/11/04 09:23:23;;;;;;;20.00;8.83;;;6.90;97.30;;;;;;5051213;28;20208;-76
2021/11/04 09:25:49;;;;;;;19.20;9.73;;;6.90;97.30;;;;;;5050765;28;20192;-77
2021/11/04 09:28:16;;;;;;;17.60;9.00;;;6.90;97.30;;;;;;5050980;28;20188;-76
2021/11/04 09:30:42;;;;;;;17.60;7.87;;;6.90;97.30;;;;;;5050833;28;20179;-77
2021/11/04 09:33:08;;;;;;;19.53;8.67;;;6.90;97.30;;;;;;5050995;28;20496;-77
2021/11/04 09:35:36;;;;;;;20.80;9.30;;;6.90;97.30;;;;;;5067448;28;20462;-76
2021/11/04 09:38:04;;;;;;;21.40;9.00;;;6.90;97.30;;;;;;5050801;28;20418;-75
2021/11/04 09:40:30;;;;;;;23.73;9.70;;;6.90;97.30;;;;;;5049236;28;20501;-75
2021/11/04 09:42:56;;;;;;;21.83;8.63;;;6.90;97.30;;;;;;5051931;28;20434;-75
2021/11/04 09:45:23;;;;;;;15.63;8.00;;;6.90;97.30;;;;;;5051125;28;21021;-75
2021/11/04 09:47:49;;;;;;;15.73;6.93;;;6.90;97.30;;;;;;5051210;28;20272;-74
2021/11/04 09:50:18;;;;;;;18.93;7.63;;;6.90;97.30;;;;;;5050852;28;21166;-76
2021/11/04 09:52:46;;;;;;;15.80;7.33;;;6.90;97.30;;;;;;5050520;28;20187;-75
2021/11/04 09:55:18;;;;;;;16.47;7.47;;;6.80;97.30;;;;;;5066226;28;20473;-77
2021/11/04 09:57:49;;;;;;;18.20;8.10;;;6.90;97.30;;;;;;5066454;28;20509;-77
2021/11/04 10:00:16;;;;;;;17.90;7.70;;;6.90;97.30;;;;;;5049935;28;20414;-77
2021/11/04 10:02:44;;;;;;;17.77;7.00;;;6.90;97.30;;;;;;5051280;28;20453;-76
2021/11/04 10:05:13;;;;;;;16.77;7.30;;;6.90;97.30;;;;;;5049025;28;20438;-75
2021/11/04 10:07:47;;;;;;;20.80;7.30;;;6.90;97.30;;;;;;5050085;28;20454;-76
2021/11/04 10:10:18;;;;;;;14.77;6.90;;;6.90;97.30;;;;;;5050415;28;20994;-77
2021/11/04 10:12:56;;;;;;;13.07;6.80;;;6.90;97.30;;;;;;5052104;28;20395;-76
2021/11/04 10:15:23;;;;;;;15.47;6.47;;;6.90;97.30;;;;;;5050746;28;20477;-77
2021/11/04 10:17:48;;;;;;;12.40;5.73;;;6.90;97.30;;;;;;5067077;28;20450;-76
2021/11/04 10:20:17;;;;;;;15.13;7.00;;;6.90;97.30;;;;;;5050515;28;20952;-75
2021/11/04 10:22:43;;;;;;;12.70;5.90;;;6.90;97.30;;;;;;5065642;28;20630;-76
2021/11/04 10:25:27;;;;;;;11.77;5.00;;;6.80;97.30;;;;;;5050194;28;20526;-78
2021/11/04 10:27:54;;;;;;;8.77;4.80;;;6.80;97.30;;;;;;5050580;28;20673;-76
2021/11/04 10:30:52;;;;;;;15.33;6.50;;;6.80;97.30;;;;;;5050108;28;20426;-76
2021/11/04 10:33:33;;;;;;;17.30;5.20;;;6.80;97.30;;;;;;5044254;28;20561;-76
2021/11/04 10:36:17;;;;;;;17.63;5.67;;;6.80;97.30;;;;;;5049994;28;20445;-75
2021/11/04 10:38:50;;;;;;;8.20;4.10;;;6.80;97.30;;;;;;5049800;28;20777;-78
2021/11/04 10:41:22;;;;;;;8.20;4.20;;;6.80;97.30;;;;;;5050453;28;20875;-76
2021/11/04 10:43:50;;;;;;;11.60;5.30;;;6.90;97.30;;;;;;5050131;28;20928;-77
2021/11/04 10:46:16;;;;;;;12.23;4.83;;;6.90;97.30;;;;;;5049771;28;20465;-77
2021/11/04 10:48:47;;;;;;;8.17;4.20;;;6.90;97.30;;;;;;5067053;28;21003;-77
2021/11/04 10:51:22;;;;;;;6.17;3.80;;;6.90;97.30;;;;;;5050318;28;20445;-77
2021/11/04 10:54:09;;;;;;;9.80;4.33;;;6.90;97.30;;;;;;5049787;28;20406;-78
2021/11/04 10:56:37;;;;;;;8.10;3.87;;;6.90;97.30;;;;;;5049953;28;20422;-76
2021/11/04 10:59:10;;;;;;;11.43;4.10;;;6.90;97.30;;;;;;5066601;28;20426;-77
2021/11/04 11:01:44;;;;;;;7.83;4.30;;;6.90;97.30;;;;;;5049727;28;20510;-76
2021/11/04 11:04:12;;;;;;;11.13;4.00;;;6.90;97.30;;;;;;5050344;28;20478;-78
2021/11/04 11:06:43;;;;;;;5.67;3.87;;;6.90;97.30;;;;;;5050477;28;20495;-78
2021/11/04 11:09:16;;;;;;;9.60;4.63;;;6.90;97.30;;;;;;5051468;28;20492;-77
2021/11/04 11:11:44;;;;;;;6.10;4.07;;;6.90;97.30;;;;;;5051421;28;20425;-79
2021/11/04 11:14:11;;;;;;;6.40;4.03;;;6.90;97.30;;;;;;5051214;28;20501;-78
2021/11/04 11:16:41;;;;;;;8.80;4.23;;;6.90;97.30;;;;;;5067640;28;20427;-78
2021/11/04 11:19:08;;;;;;;9.53;4.77;;;7.00;97.30;;;;;;5055287;28;20472;-78
2021/11/04 11:21:40;;;;;;;7.90;3.87;;;7.00;97.30;;;;;;5056007;28;20422;-78
2021/11/04 11:24:07;;;;;;;7.97;3.57;;;7.00;97.30;;;;;;5054722;28;20497;-78
2021/11/04 11:26:33;;;;;;;6.00;3.27;;;7.00;97.30;;;;;;5055372;28;20511;-79
2021/11/04 11:28:59;;;;;;;8.70;5.43;;;7.00;97.30;;;;;;5054802;28;20513;-77
2021/11/04 11:31:26;;;;;;;8.73;4.50;;;7.00;97.30;;;;;;5038015;28;20177;-78
2021/11/04 11:34:08;;;;;;;9.97;4.90;;;7.00;97.30;;;;;;5035138;28;20459;-76
2021/11/04 11:36:34;;;;;;;9.60;4.30;;;7.00;97.30;;;;;;5054767;28;20943;-78
2021/11/04 11:39:04;;;;;;;13.60;5.30;;;7.10;97.30;;;;;;5041091;28;20474;-78
2021/11/04 11:41:31;;;;;;;9.97;5.00;;;7.10;97.30;;;;;;5051107;28;20940;-77
2021/11/04 11:44:08;;;;;;;10.50;4.90;;;7.10;97.30;;;;;;5034870;28;20509;-78
2021/11/04 11:47:02;;;;;;;7.00;4.20;;;7.10;97.30;;;;;;5034948;28;20520;-79
2021/11/04 11:49:27;;;;;;;5.97;3.80;;;7.10;97.30;;;;;;5035465;28;20407;-78
2021/11/04 11:51:54;;;;;;;7.70;3.47;;;7.10;97.30;;;;;;5035120;28;20472;-78
2021/11/04 11:54:58;;;;;;;6.80;3.60;;;7.10;97.30;;;;;;5034807;28;20173;-78
2021/11/04 11:57:25;;;;;;;6.07;3.70;;;7.00;97.30;;;;;;5036021;28;20437;-78
2021/11/04 11:59:51;;;;;;;4.80;3.00;;;7.00;97.30;;;;;;5035152;28;20514;-79
2021/11/04 12:02:43;;;;;;;4.23;2.93;;;7.00;97.30;;;;;;5051312;28;20419;-78
2021/11/04 12:05:31;;;;;;;4.50;2.73;;;7.00;97.30;;;;;;5034766;28;20450;-79
2021/11/04 12:08:09;;;;;;;6.40;3.40;;;7.00;97.30;;;;;;5051204;28;20512;-78
2021/11/04 12:10:44;;;;;;;5.20;3.23;;;7.00;97.30;;;;;;5051603;28;20466;-79
2021/11/04 12:13:33;;;;;;;4.27;2.90;;;7.00;97.30;;;;;;5034676;28;20589;-79
2021/11/04 12:16:11;;;;;;;7.70;2.70;;;7.00;97.30;;;;;;5043681;28;20431;-78
2021/11/04 12:18:37;;;;;;;2.60;2.20;;;7.00;97.30;;;;;;5035280;28;20399;-78
2021/11/04 12:21:05;;;;;;;4.30;2.50;;;7.00;97.30;;;;;;5051183;28;20412;-79
2021/11/04 12:23:35;;;;;;;3.37;2.47;;;7.00;97.30;;;;;;5051626;28;20183;-78
2021/11/04 12:26:07;;;;;;;2.33;1.83;;;7.00;97.30;;;;;;5050574;28;20481;-78
2021/11/04 12:28:49;;;;;;;4.47;2.30;;;7.00;97.30;;;;;;5051163;28;20480;-79
2021/11/04 12:31:18;;;;;;;2.37;2.10;;;7.00;97.30;;;;;;5051310;28;20480;-79
2021/11/04 12:33:44;;;;;;;3.87;2.10;;;7.00;97.30;;;;;;5050805;28;20794;-79
2021/11/04 12:36:09;;;;;;;5.10;2.10;;;7.00;97.30;;;;;;5050725;28;20438;-79
2021/11/04 12:38:44;;;;;;;2.13;1.97;;;7.10;97.30;;;;;;5051233;28;20176;-79
2021/11/04 12:41:17;;;;;;;4.03;2.30;;;7.10;97.30;;;;;;5050976;28;20242;-77
2021/11/04 12:43:45;;;;;;;4.10;2.10;;;7.00;97.30;;;;;;5051544;28;20415;-80
2021/11/04 12:46:32;;;;;;;3.93;2.30;;;7.10;97.30;;;;;;5052431;28;20440;-80
2021/11/04 12:49:03;;;;;;;2.00;1.73;;;7.10;97.30;;;;;;5052846;28;20507;-80